sensor_id;sensor_type;location;lat;lon;timestamp;P1;durP1;ratioP1;P2;durP2;ratioP2
11582;SDS011;34299;50.820;4.548;2022-12-19T00:00:41;5.27;;;3.00;;
11582;SDS011;34299;50.820;4.548;2022-12-19T00:03:09;6.63;;;4.27;;
11582;SDS011;34299;50.820;4.548;2022-12-19T00:05:36;7.03;;;3.93;;
11582;SDS011;34299;50.820;4.548;2022-12-19T00:08:05;5.90;;;3.53;;
11582;SDS011;34299;50.820;4.548;2022-12-19T00:10:32;8.17;;;4.50;;
11582;SDS011;34299;50.820;4.548;2022-12-19T00:12:59;6.67;;;4.63;;
11582;SDS011;34299;50.820;4.548;2022-12-19T00:15:26;7.97;;;4.50;;
11582;SDS011;34299;50.820;4.548;2022-12-19T00:17:54;5.70;;;3.57;;
11582;SDS011;34299;50.820;4.548;2022-12-19T00:20:21;6.97;;;3.63;;
11582;SDS011;34299;50.820;4.548;2022-12-19T00:22:48;11.87;;;3.90;;
11582;SDS011;34299;50.820;4.548;2022-12-19T00:25:17;9.00;;;5.40;;
11582;SDS011;34299;50.820;4.548;2022-12-19T00:27:44;8.07;;;4.37;;
11582;SDS011;34299;50.820;4.548;2022-12-19T00:30:11;13.37;;;5.00;;
11582;SDS011;34299;50.820;4.548;2022-12-19T00:32:38;5.03;;;3.13;;
11582;SDS011;34299;50.820;4.548;2022-12-19T00:35:06;7.43;;;4.07;;
11582;SDS011;34299;50.820;4.548;2022-12-19T00:37:33;5.43;;;2.13;;
11582;SDS011;34299;50.820;4.548;2022-12-19T00:40:00;8.10;;;4.70;;
11582;SDS011;34299;50.820;4.548;2022-12-19T00:42:29;8.90;;;5.40;;
11582;SDS011;34299;50.820;4.548;2022-12-19T00:44:56;8.90;;;5.00;;
11582;SDS011;34299;50.820;4.548;2022-12-19T00:47:23;4.77;;;4.37;;
11582;SDS011;34299;50.820;4.548;2022-12-19T00:49:50;8.23;;;5.23;;
11582;SDS011;34299;50.820;4.548;2022-12-19T00:52:17;11.47;;;5.87;;
11582;SDS011;34299;50.820;4.548;2022-12-19T00:54:45;11.30;;;5.27;;
11582;SDS011;34299;50.820;4.548;2022-12-19T00:57:12;10.53;;;5.97;;
11582;SDS011;34299;50.820;4.548;2022-12-19T00:59:41;8.10;;;5.57;;
11582;SDS011;34299;50.820;4.548;2022-12-19T01:02:08;9.53;;;5.73;;
11582;SDS011;34299;50.820;4.548;2022-12-19T01:04:35;8.27;;;5.40;;
11582;SDS011;34299;50.820;4.548;2022-12-19T01:07:02;4.33;;;3.93;;
11582;SDS011;34299;50.820;4.548;2022-12-19T01:09:32;8.97;;;6.00;;
11582;SDS011;34299;50.820;4.548;2022-12-19T01:12:00;10.50;;;6.53;;
11582;SDS011;34299;50.820;4.548;2022-12-19T01:14:47;10.07;;;5.40;;
11582;SDS011;34299;50.820;4.548;2022-12-19T01:17:14;6.80;;;3.07;;
11582;SDS011;34299;50.820;4.548;2022-12-19T01:19:41;8.53;;;5.23;;
11582;SDS011;34299;50.820;4.548;2022-12-19T01:22:08;10.67;;;5.93;;
11582;SDS011;34299;50.820;4.548;2022-12-19T01:24:35;6.00;;;4.17;;
11582;SDS011;34299;50.820;4.548;2022-12-19T01:27:03;10.17;;;5.33;;
11582;SDS011;34299;50.820;4.548;2022-12-19T01:29:30;12.33;;;6.37;;
11582;SDS011;34299;50.820;4.548;2022-12-19T01:31:59;11.60;;;5.30;;
11582;SDS011;34299;50.820;4.548;2022-12-19T01:34:26;7.00;;;4.90;;
11582;SDS011;34299;50.820;4.548;2022-12-19T01:36:53;7.17;;;4.30;;
11582;SDS011;34299;50.820;4.548;2022-12-19T01:39:21;6.60;;;4.83;;
11582;SDS011;34299;50.820;4.548;2022-12-19T01:41:48;5.10;;;3.43;;
11582;SDS011;34299;50.820;4.548;2022-12-19T01:44:15;6.93;;;4.60;;
11582;SDS011;34299;50.820;4.548;2022-12-19T01:46:43;7.67;;;3.80;;
11582;SDS011;34299;50.820;4.548;2022-12-19T01:49:15;10.10;;;3.90;;
11582;SDS011;34299;50.820;4.548;2022-12-19T01:51:46;4.57;;;3.27;;
11582;SDS011;34299;50.820;4.548;2022-12-19T01:54:14;5.90;;;4.20;;
11582;SDS011;34299;50.820;4.548;2022-12-19T01:56:44;4.00;;;2.47;;
11582;SDS011;34299;50.820;4.548;2022-12-19T01:59:12;8.23;;;5.47;;
11582;SDS011;34299;50.820;4.548;2022-12-19T02:01:40;2.63;;;2.33;;
11582;SDS011;34299;50.820;4.548;2022-12-19T02:04:07;4.60;;;2.83;;
11582;SDS011;34299;50.820;4.548;2022-12-19T02:06:37;5.60;;;3.60;;
11582;SDS011;34299;50.820;4.548;2022-12-19T02:09:05;4.87;;;3.47;;
11582;SDS011;34299;50.820;4.548;2022-12-19T02:11:32;6.30;;;3.60;;
11582;SDS011;34299;50.820;4.548;2022-12-19T02:13:59;7.17;;;3.77;;
11582;SDS011;34299;50.820;4.548;2022-12-19T02:16:28;4.60;;;3.27;;
11582;SDS011;34299;50.820;4.548;2022-12-19T02:19:03;6.27;;;2.87;;
11582;SDS011;34299;50.820;4.548;2022-12-19T02:21:39;3.77;;;2.43;;
11582;SDS011;34299;50.820;4.548;2022-12-19T02:26:58;7.33;;;3.30;;
11582;SDS011;34299;50.820;4.548;2022-12-19T02:29:34;7.17;;;3.43;;
11582;SDS011;34299;50.820;4.548;2022-12-19T02:32:09;5.57;;;3.20;;
11582;SDS011;34299;50.820;4.548;2022-12-19T02:34:40;7.07;;;4.27;;
11582;SDS011;34299;50.820;4.548;2022-12-19T02:37:09;6.57;;;3.83;;
11582;SDS011;34299;50.820;4.548;2022-12-19T02:39:39;7.40;;;4.63;;
11582;SDS011;34299;50.820;4.548;2022-12-19T02:42:09;6.87;;;4.53;;
11582;SDS011;34299;50.820;4.548;2022-12-19T02:44:38;5.27;;;3.53;;
11582;SDS011;34299;50.820;4.548;2022-12-19T02:47:06;4.60;;;2.87;;
11582;SDS011;34299;50.820;4.548;2022-12-19T02:49:36;5.07;;;3.00;;
11582;SDS011;34299;50.820;4.548;2022-12-19T02:52:10;8.07;;;4.00;;
11582;SDS011;34299;50.820;4.548;2022-12-19T02:54:37;4.10;;;3.07;;
11582;SDS011;34299;50.820;4.548;2022-12-19T02:57:06;5.10;;;3.00;;
11582;SDS011;34299;50.820;4.548;2022-12-19T02:59:39;6.90;;;3.80;;
11582;SDS011;34299;50.820;4.548;2022-12-19T03:02:12;3.77;;;3.37;;
11582;SDS011;34299;50.820;4.548;2022-12-19T03:04:47;4.10;;;2.60;;
11582;SDS011;34299;50.820;4.548;2022-12-19T03:07:17;2.77;;;2.60;;
11582;SDS011;34299;50.820;4.548;2022-12-19T03:09:49;4.13;;;2.43;;
11582;SDS011;34299;50.820;4.548;2022-12-19T03:12:20;4.93;;;4.03;;
11582;SDS011;34299;50.820;4.548;2022-12-19T03:14:50;5.60;;;3.90;;
11582;SDS011;34299;50.820;4.548;2022-12-19T03:17:18;4.67;;;4.00;;
11582;SDS011;34299;50.820;4.548;2022-12-19T03:19:46;9.27;;;5.23;;
11582;SDS011;34299;50.820;4.548;2022-12-19T03:22:13;5.77;;;3.60;;
11582;SDS011;34299;50.820;4.548;2022-12-19T03:24:41;8.20;;;3.73;;
11582;SDS011;34299;50.820;4.548;2022-12-19T03:27:08;5.67;;;3.93;;
11582;SDS011;34299;50.820;4.548;2022-12-19T03:29:37;7.80;;;4.30;;
11582;SDS011;34299;50.820;4.548;2022-12-19T03:32:06;8.33;;;5.23;;
11582;SDS011;34299;50.820;4.548;2022-12-19T03:34:35;5.70;;;3.87;;
11582;SDS011;34299;50.820;4.548;2022-12-19T03:37:06;3.43;;;2.33;;
11582;SDS011;34299;50.820;4.548;2022-12-19T03:39:34;7.53;;;3.07;;
11582;SDS011;34299;50.820;4.548;2022-12-19T03:42:02;5.73;;;2.43;;
11582;SDS011;34299;50.820;4.548;2022-12-19T03:44:48;5.20;;;3.53;;
11582;SDS011;34299;50.820;4.548;2022-12-19T03:47:16;3.17;;;1.73;;
11582;SDS011;34299;50.820;4.548;2022-12-19T03:49:44;4.97;;;3.50;;
11582;SDS011;34299;50.820;4.548;2022-12-19T03:52:16;5.13;;;4.20;;
11582;SDS011;34299;50.820;4.548;2022-12-19T03:54:46;5.43;;;3.80;;
11582;SDS011;34299;50.820;4.548;2022-12-19T03:57:16;6.30;;;3.63;;
11582;SDS011;34299;50.820;4.548;2022-12-19T03:59:45;2.70;;;2.13;;
11582;SDS011;34299;50.820;4.548;2022-12-19T04:02:14;6.30;;;3.60;;
11582;SDS011;34299;50.820;4.548;2022-12-19T04:04:42;5.57;;;2.87;;
11582;SDS011;34299;50.820;4.548;2022-12-19T04:07:11;4.30;;;2.50;;
11582;SDS011;34299;50.820;4.548;2022-12-19T04:09:41;3.73;;;2.80;;
11582;SDS011;34299;50.820;4.548;2022-12-19T04:12:09;3.80;;;2.77;;
11582;SDS011;34299;50.820;4.548;2022-12-19T04:14:39;4.03;;;3.60;;
11582;SDS011;34299;50.820;4.548;2022-12-19T04:17:08;7.47;;;3.77;;
11582;SDS011;34299;50.820;4.548;2022-12-19T04:19:41;11.80;;;4.60;;
11582;SDS011;34299;50.820;4.548;2022-12-19T04:22:11;4.03;;;2.87;;
11582;SDS011;34299;50.820;4.548;2022-12-19T04:24:41;4.80;;;2.73;;
11582;SDS011;34299;50.820;4.548;2022-12-19T04:27:09;4.10;;;2.27;;
11582;SDS011;34299;50.820;4.548;2022-12-19T04:29:37;4.50;;;3.83;;
11582;SDS011;34299;50.820;4.548;2022-12-19T04:32:05;5.90;;;4.13;;
11582;SDS011;34299;50.820;4.548;2022-12-19T04:34:33;5.47;;;3.43;;
11582;SDS011;34299;50.820;4.548;2022-12-19T04:37:00;6.03;;;3.53;;
11582;SDS011;34299;50.820;4.548;2022-12-19T04:39:28;5.07;;;3.20;;
11582;SDS011;34299;50.820;4.548;2022-12-19T04:41:56;4.07;;;2.33;;
11582;SDS011;34299;50.820;4.548;2022-12-19T04:44:24;3.57;;;2.83;;
11582;SDS011;34299;50.820;4.548;2022-12-19T04:46:51;3.97;;;3.30;;
11582;SDS011;34299;50.820;4.548;2022-12-19T04:49:18;2.20;;;2.00;;
11582;SDS011;34299;50.820;4.548;2022-12-19T04:51:45;3.30;;;2.60;;
11582;SDS011;34299;50.820;4.548;2022-12-19T04:54:13;1.23;;;1.00;;
11582;SDS011;34299;50.820;4.548;2022-12-19T04:56:40;1.57;;;1.43;;
11582;SDS011;34299;50.820;4.548;2022-12-19T04:59:09;3.60;;;2.53;;
11582;SDS011;34299;50.820;4.548;2022-12-19T05:01:36;3.60;;;2.50;;
11582;SDS011;34299;50.820;4.548;2022-12-19T05:04:04;5.83;;;3.17;;
11582;SDS011;34299;50.820;4.548;2022-12-19T05:06:31;4.20;;;2.93;;
11582;SDS011;34299;50.820;4.548;2022-12-19T05:08:58;4.20;;;2.60;;
11582;SDS011;34299;50.820;4.548;2022-12-19T05:11:25;4.13;;;2.30;;
11582;SDS011;34299;50.820;4.548;2022-12-19T05:13:53;4.47;;;2.80;;
11582;SDS011;34299;50.820;4.548;2022-12-19T05:16:21;4.03;;;2.50;;
11582;SDS011;34299;50.820;4.548;2022-12-19T05:18:48;3.43;;;2.77;;
11582;SDS011;34299;50.820;4.548;2022-12-19T05:21:16;3.70;;;2.77;;
11582;SDS011;34299;50.820;4.548;2022-12-19T05:23:43;3.47;;;2.23;;
11582;SDS011;34299;50.820;4.548;2022-12-19T05:26:10;8.27;;;1.93;;
11582;SDS011;34299;50.820;4.548;2022-12-19T05:28:37;5.13;;;2.70;;
11582;SDS011;34299;50.820;4.548;2022-12-19T05:31:05;3.47;;;2.23;;
11582;SDS011;34299;50.820;4.548;2022-12-19T05:33:34;4.43;;;2.40;;
11582;SDS011;34299;50.820;4.548;2022-12-19T05:36:02;4.23;;;2.43;;
11582;SDS011;34299;50.820;4.548;2022-12-19T05:38:30;4.73;;;2.70;;
11582;SDS011;34299;50.820;4.548;2022-12-19T05:40:57;4.07;;;2.40;;
11582;SDS011;34299;50.820;4.548;2022-12-19T05:43:24;2.47;;;2.13;;
11582;SDS011;34299;50.820;4.548;2022-12-19T05:45:52;5.10;;;2.37;;
11582;SDS011;34299;50.820;4.548;2022-12-19T05:48:19;2.50;;;1.83;;
11582;SDS011;34299;50.820;4.548;2022-12-19T05:50:48;1.63;;;1.47;;
11582;SDS011;34299;50.820;4.548;2022-12-19T05:53:15;2.67;;;2.27;;
11582;SDS011;34299;50.820;4.548;2022-12-19T05:55:43;3.07;;;2.07;;
11582;SDS011;34299;50.820;4.548;2022-12-19T05:58:10;5.47;;;3.00;;
11582;SDS011;34299;50.820;4.548;2022-12-19T06:00:37;5.87;;;2.13;;
11582;SDS011;34299;50.820;4.548;2022-12-19T06:03:05;4.90;;;2.90;;
11582;SDS011;34299;50.820;4.548;2022-12-19T06:05:35;4.00;;;1.97;;
11582;SDS011;34299;50.820;4.548;2022-12-19T06:08:04;4.37;;;3.07;;
11582;SDS011;34299;50.820;4.548;2022-12-19T06:10:31;3.47;;;2.30;;
11582;SDS011;34299;50.820;4.548;2022-12-19T06:12:59;2.43;;;2.20;;
11582;SDS011;34299;50.820;4.548;2022-12-19T06:15:26;2.90;;;2.20;;
11582;SDS011;34299;50.820;4.548;2022-12-19T06:17:53;2.60;;;1.87;;
11582;SDS011;34299;50.820;4.548;2022-12-19T06:20:20;4.37;;;2.37;;
11582;SDS011;34299;50.820;4.548;2022-12-19T06:22:48;6.63;;;2.90;;
11582;SDS011;34299;50.820;4.548;2022-12-19T06:25:16;3.13;;;2.20;;
11582;SDS011;34299;50.820;4.548;2022-12-19T06:27:43;7.20;;;3.10;;
11582;SDS011;34299;50.820;4.548;2022-12-19T06:30:11;2.67;;;2.33;;
11582;SDS011;34299;50.820;4.548;2022-12-19T06:32:39;3.07;;;2.03;;
11582;SDS011;34299;50.820;4.548;2022-12-19T06:35:06;2.23;;;2.03;;
11582;SDS011;34299;50.820;4.548;2022-12-19T06:37:34;3.57;;;2.57;;
11582;SDS011;34299;50.820;4.548;2022-12-19T06:40:01;3.50;;;2.33;;
11582;SDS011;34299;50.820;4.548;2022-12-19T06:42:29;2.90;;;2.27;;
11582;SDS011;34299;50.820;4.548;2022-12-19T06:44:56;5.63;;;2.57;;
11582;SDS011;34299;50.820;4.548;2022-12-19T06:47:23;2.57;;;2.37;;
11582;SDS011;34299;50.820;4.548;2022-12-19T06:49:50;8.00;;;2.27;;
11582;SDS011;34299;50.820;4.548;2022-12-19T06:52:17;1.17;;;1.07;;
11582;SDS011;34299;50.820;4.548;2022-12-19T06:54:45;2.40;;;1.63;;
11582;SDS011;34299;50.820;4.548;2022-12-19T06:57:12;3.47;;;1.90;;
11582;SDS011;34299;50.820;4.548;2022-12-19T06:59:40;2.63;;;1.70;;
11582;SDS011;34299;50.820;4.548;2022-12-19T07:02:11;1.97;;;1.70;;
11582;SDS011;34299;50.820;4.548;2022-12-19T07:04:42;5.63;;;2.37;;
11582;SDS011;34299;50.820;4.548;2022-12-19T07:07:11;2.53;;;2.33;;
11582;SDS011;34299;50.820;4.548;2022-12-19T07:09:38;5.00;;;3.13;;
11582;SDS011;34299;50.820;4.548;2022-12-19T07:12:06;3.87;;;2.27;;
11582;SDS011;34299;50.820;4.548;2022-12-19T07:14:33;3.33;;;2.40;;
11582;SDS011;34299;50.820;4.548;2022-12-19T07:17:02;3.53;;;1.90;;
11582;SDS011;34299;50.820;4.548;2022-12-19T07:19:30;2.03;;;1.83;;
11582;SDS011;34299;50.820;4.548;2022-12-19T07:21:58;2.23;;;1.80;;
11582;SDS011;34299;50.820;4.548;2022-12-19T07:24:26;2.80;;;2.33;;
11582;SDS011;34299;50.820;4.548;2022-12-19T07:26:54;2.50;;;1.93;;
11582;SDS011;34299;50.820;4.548;2022-12-19T07:29:21;3.83;;;2.00;;
11582;SDS011;34299;50.820;4.548;2022-12-19T07:31:48;2.80;;;1.60;;
11582;SDS011;34299;50.820;4.548;2022-12-19T07:34:17;3.03;;;2.30;;
11582;SDS011;34299;50.820;4.548;2022-12-19T07:36:44;4.53;;;2.63;;
11582;SDS011;34299;50.820;4.548;2022-12-19T07:39:11;2.27;;;2.07;;
11582;SDS011;34299;50.820;4.548;2022-12-19T07:41:39;3.43;;;2.30;;
11582;SDS011;34299;50.820;4.548;2022-12-19T07:44:06;3.47;;;2.37;;
11582;SDS011;34299;50.820;4.548;2022-12-19T07:46:33;3.87;;;2.53;;
11582;SDS011;34299;50.820;4.548;2022-12-19T07:49:01;3.13;;;1.90;;
11582;SDS011;34299;50.820;4.548;2022-12-19T07:51:29;3.40;;;2.33;;
11582;SDS011;34299;50.820;4.548;2022-12-19T07:53:57;2.57;;;2.33;;
11582;SDS011;34299;50.820;4.548;2022-12-19T07:56:24;2.33;;;1.83;;
11582;SDS011;34299;50.820;4.548;2022-12-19T07:58:51;3.00;;;2.40;;
11582;SDS011;34299;50.820;4.548;2022-12-19T08:01:18;3.90;;;2.40;;
11582;SDS011;34299;50.820;4.548;2022-12-19T08:03:46;1.80;;;1.70;;
11582;SDS011;34299;50.820;4.548;2022-12-19T08:06:15;5.23;;;2.70;;
11582;SDS011;34299;50.820;4.548;2022-12-19T08:08:43;4.00;;;2.00;;
11582;SDS011;34299;50.820;4.548;2022-12-19T08:11:11;3.67;;;2.60;;
11582;SDS011;34299;50.820;4.548;2022-12-19T08:13:40;2.97;;;2.20;;
11582;SDS011;34299;50.820;4.548;2022-12-19T08:16:08;1.33;;;1.27;;
11582;SDS011;34299;50.820;4.548;2022-12-19T08:18:35;2.63;;;2.27;;
11582;SDS011;34299;50.820;4.548;2022-12-19T08:21:02;2.83;;;2.07;;
11582;SDS011;34299;50.820;4.548;2022-12-19T08:23:30;3.17;;;2.57;;
11582;SDS011;34299;50.820;4.548;2022-12-19T08:25:59;7.70;;;2.40;;
11582;SDS011;34299;50.820;4.548;2022-12-19T08:28:28;2.37;;;2.03;;
11582;SDS011;34299;50.820;4.548;2022-12-19T08:30:55;4.67;;;2.73;;
11582;SDS011;34299;50.820;4.548;2022-12-19T08:33:22;2.23;;;1.93;;
11582;SDS011;34299;50.820;4.548;2022-12-19T08:35:49;1.97;;;1.83;;
11582;SDS011;34299;50.820;4.548;2022-12-19T08:38:16;2.00;;;1.80;;
11582;SDS011;34299;50.820;4.548;2022-12-19T08:40:44;2.67;;;1.77;;
11582;SDS011;34299;50.820;4.548;2022-12-19T08:43:18;2.30;;;2.10;;
11582;SDS011;34299;50.820;4.548;2022-12-19T08:45:47;3.80;;;1.80;;
11582;SDS011;34299;50.820;4.548;2022-12-19T08:48:14;2.30;;;1.97;;
11582;SDS011;34299;50.820;4.548;2022-12-19T08:50:47;3.63;;;2.07;;
11582;SDS011;34299;50.820;4.548;2022-12-19T08:53:14;3.10;;;2.23;;
11582;SDS011;34299;50.820;4.548;2022-12-19T08:55:41;1.90;;;1.60;;
11582;SDS011;34299;50.820;4.548;2022-12-19T08:58:09;2.57;;;1.97;;
11582;SDS011;34299;50.820;4.548;2022-12-19T09:00:37;2.47;;;2.13;;
11582;SDS011;34299;50.820;4.548;2022-12-19T09:03:04;2.50;;;2.00;;
11582;SDS011;34299;50.820;4.548;2022-12-19T09:05:33;2.60;;;1.90;;
11582;SDS011;34299;50.820;4.548;2022-12-19T09:08:00;4.63;;;2.00;;
11582;SDS011;34299;50.820;4.548;2022-12-19T09:10:27;3.10;;;2.40;;
11582;SDS011;34299;50.820;4.548;2022-12-19T09:12:55;2.97;;;2.20;;
11582;SDS011;34299;50.820;4.548;2022-12-19T09:15:22;2.10;;;1.90;;
11582;SDS011;34299;50.820;4.548;2022-12-19T09:17:51;2.60;;;2.17;;
11582;SDS011;34299;50.820;4.548;2022-12-19T09:20:18;1.80;;;1.70;;
11582;SDS011;34299;50.820;4.548;2022-12-19T09:22:45;1.77;;;1.30;;
11582;SDS011;34299;50.820;4.548;2022-12-19T09:25:13;3.13;;;2.47;;
11582;SDS011;34299;50.820;4.548;2022-12-19T09:27:40;3.93;;;1.73;;
11582;SDS011;34299;50.820;4.548;2022-12-19T09:30:08;2.50;;;1.53;;
11582;SDS011;34299;50.820;4.548;2022-12-19T09:32:36;2.70;;;1.80;;
11582;SDS011;34299;50.820;4.548;2022-12-19T09:35:06;4.70;;;2.13;;
11582;SDS011;34299;50.820;4.548;2022-12-19T09:37:33;2.53;;;2.13;;
11582;SDS011;34299;50.820;4.548;2022-12-19T09:40:00;3.73;;;2.03;;
11582;SDS011;34299;50.820;4.548;2022-12-19T09:42:34;3.63;;;2.40;;
11582;SDS011;34299;50.820;4.548;2022-12-19T09:47:55;2.63;;;1.50;;
11582;SDS011;34299;50.820;4.548;2022-12-19T09:50:31;3.67;;;2.00;;
11582;SDS011;34299;50.820;4.548;2022-12-19T09:53:01;2.80;;;1.50;;
11582;SDS011;34299;50.820;4.548;2022-12-19T09:55:30;2.10;;;1.90;;
11582;SDS011;34299;50.820;4.548;2022-12-19T09:58:00;3.33;;;2.33;;
11582;SDS011;34299;50.820;4.548;2022-12-19T10:00:31;3.97;;;2.23;;
11582;SDS011;34299;50.820;4.548;2022-12-19T10:03:00;1.77;;;1.60;;
11582;SDS011;34299;50.820;4.548;2022-12-19T10:05:32;6.13;;;1.90;;
11582;SDS011;34299;50.820;4.548;2022-12-19T10:08:00;2.87;;;2.10;;
11582;SDS011;34299;50.820;4.548;2022-12-19T10:10:33;5.03;;;2.07;;
11582;SDS011;34299;50.820;4.548;2022-12-19T10:13:08;1.57;;;1.47;;
11582;SDS011;34299;50.820;4.548;2022-12-19T10:15:41;2.13;;;1.80;;
11582;SDS011;34299;50.820;4.548;2022-12-19T10:20:58;3.67;;;1.40;;
11582;SDS011;34299;50.820;4.548;2022-12-19T10:26:11;1.60;;;1.40;;
11582;SDS011;34299;50.820;4.548;2022-12-19T10:28:47;4.00;;;1.83;;
11582;SDS011;34299;50.820;4.548;2022-12-19T10:31:20;2.63;;;2.10;;
11582;SDS011;34299;50.820;4.548;2022-12-19T10:33:49;1.47;;;1.37;;
11582;SDS011;34299;50.820;4.548;2022-12-19T10:36:22;3.00;;;2.43;;
11582;SDS011;34299;50.820;4.548;2022-12-19T10:38:52;1.37;;;1.27;;
11582;SDS011;34299;50.820;4.548;2022-12-19T10:41:23;3.20;;;2.03;;
11582;SDS011;34299;50.820;4.548;2022-12-19T10:43:52;2.73;;;1.53;;
11582;SDS011;34299;50.820;4.548;2022-12-19T10:46:22;2.70;;;1.50;;
11582;SDS011;34299;50.820;4.548;2022-12-19T10:48:51;1.43;;;1.33;;
11582;SDS011;34299;50.820;4.548;2022-12-19T10:51:20;2.13;;;1.80;;
11582;SDS011;34299;50.820;4.548;2022-12-19T10:53:52;3.20;;;1.53;;
11582;SDS011;34299;50.820;4.548;2022-12-19T10:56:21;1.73;;;1.63;;
11582;SDS011;34299;50.820;4.548;2022-12-19T10:58:50;1.63;;;1.50;;
11582;SDS011;34299;50.820;4.548;2022-12-19T11:01:22;2.77;;;1.60;;
11582;SDS011;34299;50.820;4.548;2022-12-19T11:03:50;2.13;;;1.73;;
11582;SDS011;34299;50.820;4.548;2022-12-19T11:06:38;3.30;;;1.83;;
11582;SDS011;34299;50.820;4.548;2022-12-19T11:09:20;2.33;;;1.90;;
11582;SDS011;34299;50.820;4.548;2022-12-19T11:11:49;1.17;;;1.03;;
11582;SDS011;34299;50.820;4.548;2022-12-19T11:14:22;1.50;;;1.33;;
11582;SDS011;34299;50.820;4.548;2022-12-19T11:16:50;2.97;;;1.97;;
11582;SDS011;34299;50.820;4.548;2022-12-19T11:19:18;1.47;;;1.00;;
11582;SDS011;34299;50.820;4.548;2022-12-19T11:21:46;2.43;;;1.10;;
11582;SDS011;34299;50.820;4.548;2022-12-19T11:24:16;2.73;;;1.60;;
11582;SDS011;34299;50.820;4.548;2022-12-19T11:26:48;2.13;;;1.60;;
11582;SDS011;34299;50.820;4.548;2022-12-19T11:29:17;2.70;;;1.60;;
11582;SDS011;34299;50.820;4.548;2022-12-19T11:31:46;2.37;;;1.43;;
11582;SDS011;34299;50.820;4.548;2022-12-19T11:34:15;3.53;;;2.27;;
11582;SDS011;34299;50.820;4.548;2022-12-19T11:36:43;2.00;;;1.80;;
11582;SDS011;34299;50.820;4.548;2022-12-19T11:39:15;1.63;;;1.50;;
11582;SDS011;34299;50.820;4.548;2022-12-19T11:41:45;2.73;;;2.53;;
11582;SDS011;34299;50.820;4.548;2022-12-19T11:44:18;2.57;;;1.90;;
11582;SDS011;34299;50.820;4.548;2022-12-19T11:46:47;2.67;;;1.63;;
11582;SDS011;34299;50.820;4.548;2022-12-19T11:49:18;1.63;;;1.53;;
11582;SDS011;34299;50.820;4.548;2022-12-19T11:51:50;3.53;;;1.77;;
11582;SDS011;34299;50.820;4.548;2022-12-19T11:54:19;2.47;;;1.70;;
11582;SDS011;34299;50.820;4.548;2022-12-19T11:56:48;2.20;;;1.83;;
11582;SDS011;34299;50.820;4.548;2022-12-19T11:59:17;1.90;;;1.47;;
11582;SDS011;34299;50.820;4.548;2022-12-19T12:01:47;4.40;;;1.70;;
11582;SDS011;34299;50.820;4.548;2022-12-19T12:04:32;1.57;;;1.47;;
11582;SDS011;34299;50.820;4.548;2022-12-19T12:07:03;1.87;;;1.37;;
11582;SDS011;34299;50.820;4.548;2022-12-19T12:09:32;1.50;;;1.13;;
11582;SDS011;34299;50.820;4.548;2022-12-19T12:12:02;1.77;;;1.50;;
11582;SDS011;34299;50.820;4.548;2022-12-19T12:14:34;2.00;;;1.80;;
11582;SDS011;34299;50.820;4.548;2022-12-19T12:17:17;1.57;;;1.47;;
11582;SDS011;34299;50.820;4.548;2022-12-19T12:19:53;2.13;;;1.20;;
11582;SDS011;34299;50.820;4.548;2022-12-19T12:22:29;2.93;;;1.30;;
11582;SDS011;34299;50.820;4.548;2022-12-19T12:25:00;2.47;;;1.80;;
11582;SDS011;34299;50.820;4.548;2022-12-19T12:27:33;1.70;;;1.57;;
11582;SDS011;34299;50.820;4.548;2022-12-19T12:30:08;2.27;;;1.70;;
11582;SDS011;34299;50.820;4.548;2022-12-19T12:32:43;1.90;;;1.80;;
11582;SDS011;34299;50.820;4.548;2022-12-19T12:35:15;4.67;;;1.60;;
11582;SDS011;34299;50.820;4.548;2022-12-19T12:37:47;1.83;;;1.40;;
11582;SDS011;34299;50.820;4.548;2022-12-19T12:40:31;2.30;;;1.80;;
11582;SDS011;34299;50.820;4.548;2022-12-19T12:43:03;1.33;;;1.23;;
11582;SDS011;34299;50.820;4.548;2022-12-19T12:45:35;1.63;;;1.47;;
11582;SDS011;34299;50.820;4.548;2022-12-19T12:48:02;1.70;;;1.00;;
11582;SDS011;34299;50.820;4.548;2022-12-19T12:50:36;2.00;;;1.77;;
11582;SDS011;34299;50.820;4.548;2022-12-19T12:53:07;1.63;;;1.50;;
11582;SDS011;34299;50.820;4.548;2022-12-19T12:55:35;2.00;;;1.80;;
11582;SDS011;34299;50.820;4.548;2022-12-19T12:58:05;1.37;;;1.27;;
11582;SDS011;34299;50.820;4.548;2022-12-19T13:00:40;1.20;;;1.10;;
11582;SDS011;34299;50.820;4.548;2022-12-19T13:03:27;2.30;;;1.63;;
11582;SDS011;34299;50.820;4.548;2022-12-19T13:06:02;3.33;;;1.90;;
11582;SDS011;34299;50.820;4.548;2022-12-19T13:08:31;1.87;;;1.40;;
11582;SDS011;34299;50.820;4.548;2022-12-19T13:11:00;2.13;;;1.83;;
11582;SDS011;34299;50.820;4.548;2022-12-19T13:13:46;4.10;;;1.70;;
11582;SDS011;34299;50.820;4.548;2022-12-19T13:19:03;2.03;;;1.27;;
11582;SDS011;34299;50.820;4.548;2022-12-19T13:24:21;2.47;;;1.20;;
11582;SDS011;34299;50.820;4.548;2022-12-19T13:26:49;4.03;;;1.93;;
11582;SDS011;34299;50.820;4.548;2022-12-19T13:29:30;1.43;;;1.30;;
11582;SDS011;34299;50.820;4.548;2022-12-19T13:32:08;1.23;;;1.13;;
11582;SDS011;34299;50.820;4.548;2022-12-19T13:34:37;1.77;;;1.57;;
11582;SDS011;34299;50.820;4.548;2022-12-19T13:37:22;2.90;;;1.50;;
11582;SDS011;34299;50.820;4.548;2022-12-19T13:39:59;3.83;;;1.53;;
11582;SDS011;34299;50.820;4.548;2022-12-19T13:42:26;2.13;;;1.63;;
11582;SDS011;34299;50.820;4.548;2022-12-19T13:45:12;2.40;;;1.40;;
11582;SDS011;34299;50.820;4.548;2022-12-19T13:47:41;2.67;;;1.57;;
11582;SDS011;34299;50.820;4.548;2022-12-19T13:50:17;4.70;;;1.97;;
11582;SDS011;34299;50.820;4.548;2022-12-19T13:52:48;2.10;;;1.67;;
11582;SDS011;34299;50.820;4.548;2022-12-19T13:55:15;1.80;;;1.70;;
11582;SDS011;34299;50.820;4.548;2022-12-19T13:57:45;2.67;;;1.67;;
11582;SDS011;34299;50.820;4.548;2022-12-19T14:00:15;4.10;;;1.63;;
11582;SDS011;34299;50.820;4.548;2022-12-19T14:02:45;2.40;;;1.70;;
11582;SDS011;34299;50.820;4.548;2022-12-19T14:05:20;3.63;;;1.97;;
11582;SDS011;34299;50.820;4.548;2022-12-19T14:07:48;2.27;;;1.77;;
11582;SDS011;34299;50.820;4.548;2022-12-19T14:10:17;1.63;;;1.50;;
11582;SDS011;34299;50.820;4.548;2022-12-19T14:12:44;1.80;;;1.30;;
11582;SDS011;34299;50.820;4.548;2022-12-19T14:15:30;2.80;;;1.20;;
11582;SDS011;34299;50.820;4.548;2022-12-19T14:17:58;1.83;;;1.73;;
11582;SDS011;34299;50.820;4.548;2022-12-19T14:20:28;3.13;;;1.23;;
11582;SDS011;34299;50.820;4.548;2022-12-19T14:22:56;2.30;;;1.83;;
11582;SDS011;34299;50.820;4.548;2022-12-19T14:25:24;2.17;;;1.60;;
11582;SDS011;34299;50.820;4.548;2022-12-19T14:27:52;2.90;;;1.60;;
11582;SDS011;34299;50.820;4.548;2022-12-19T14:30:21;2.07;;;1.67;;
11582;SDS011;34299;50.820;4.548;2022-12-19T14:32:50;1.87;;;1.60;;
11582;SDS011;34299;50.820;4.548;2022-12-19T14:35:19;6.10;;;1.73;;
11582;SDS011;34299;50.820;4.548;2022-12-19T14:37:48;2.43;;;1.37;;
11582;SDS011;34299;50.820;4.548;2022-12-19T14:40:24;1.37;;;1.23;;
11582;SDS011;34299;50.820;4.548;2022-12-19T14:42:55;1.20;;;1.10;;
11582;SDS011;34299;50.820;4.548;2022-12-19T14:45:41;2.27;;;1.67;;
11582;SDS011;34299;50.820;4.548;2022-12-19T14:48:29;2.37;;;1.77;;
11582;SDS011;34299;50.820;4.548;2022-12-19T14:51:01;4.73;;;2.00;;
11582;SDS011;34299;50.820;4.548;2022-12-19T14:53:31;1.17;;;1.07;;
11582;SDS011;34299;50.820;4.548;2022-12-19T14:56:02;1.70;;;1.60;;
11582;SDS011;34299;50.820;4.548;2022-12-19T14:58:30;3.57;;;1.90;;
11582;SDS011;34299;50.820;4.548;2022-12-19T15:00:58;4.63;;;1.80;;
11582;SDS011;34299;50.820;4.548;2022-12-19T15:03:26;8.73;;;1.63;;
11582;SDS011;34299;50.820;4.548;2022-12-19T15:06:01;2.57;;;1.63;;
11582;SDS011;34299;50.820;4.548;2022-12-19T15:08:31;2.80;;;1.57;;
11582;SDS011;34299;50.820;4.548;2022-12-19T15:10:59;2.20;;;1.70;;
11582;SDS011;34299;50.820;4.548;2022-12-19T15:13:51;1.83;;;1.50;;
11582;SDS011;34299;50.820;4.548;2022-12-19T15:16:24;3.27;;;1.67;;
11582;SDS011;34299;50.820;4.548;2022-12-19T15:18:52;4.00;;;1.83;;